sensor_id;sensor_type;location;lat;lon;timestamp;pressure;altitude;pressure_sealevel;temperature;humidity
65754;BME280;52488;47.502;18.940;2023-03-16T00:01:03;97997.19;;;2.36;55.13
65754;BME280;52488;47.502;18.940;2023-03-16T00:02:08;98002.81;;;2.38;55.07
65754;BME280;52488;47.502;18.940;2023-03-16T00:03:13;97990.78;;;2.47;54.92
65754;BME280;52488;47.502;18.940;2023-03-16T00:04:22;98008.50;;;2.48;54.84
65754;BME280;52488;47.502;18.940;2023-03-16T00:05:26;97998.72;;;2.45;54.89
65754;BME280;52488;47.502;18.940;2023-03-16T00:06:29;98006.44;;;2.41;55.02
65754;BME280;52488;47.502;18.940;2023-03-16T00:07:32;98005.50;;;2.38;55.07
65754;BME280;52488;47.502;18.940;2023-03-16T00:08:36;98009.16;;;2.41;55.14
65754;BME280;52488;47.502;18.940;2023-03-16T00:09:41;98016.69;;;2.35;55.23
65754;BME280;52488;47.502;18.940;2023-03-16T00:10:45;98015.25;;;2.34;55.36
65754;BME280;52488;47.502;18.940;2023-03-16T00:11:48;98017.03;;;2.31;55.38
65754;BME280;52488;47.502;18.940;2023-03-16T00:12:52;98018.53;;;2.19;55.74
65754;BME280;52488;47.502;18.940;2023-03-16T00:13:56;98014.78;;;2.22;55.82
65754;BME280;52488;47.502;18.940;2023-03-16T00:15:00;98015.38;;;2.28;55.72
65754;BME280;52488;47.502;18.940;2023-03-16T00:16:04;98015.88;;;2.27;55.70
65754;BME280;52488;47.502;18.940;2023-03-16T00:17:11;98019.97;;;2.20;55.86
65754;BME280;52488;47.502;18.940;2023-03-16T00:18:22;98013.38;;;2.29;55.76
65754;BME280;52488;47.502;18.940;2023-03-16T00:19:28;98015.50;;;2.23;55.80
65754;BME280;52488;47.502;18.940;2023-03-16T00:20:32;98020.31;;;2.17;56.07
65754;BME280;52488;47.502;18.940;2023-03-16T00:21:35;98018.78;;;2.08;56.36
65754;BME280;52488;47.502;18.940;2023-03-16T00:22:38;98020.75;;;2.07;56.40
65754;BME280;52488;47.502;18.940;2023-03-16T00:23:41;98025.47;;;2.07;56.44
65754;BME280;52488;47.502;18.940;2023-03-16T00:24:45;98023.16;;;2.11;56.33
65754;BME280;52488;47.502;18.940;2023-03-16T00:25:48;98021.28;;;2.06;56.48
65754;BME280;52488;47.502;18.940;2023-03-16T00:26:51;98020.97;;;2.09;56.43
65754;BME280;52488;47.502;18.940;2023-03-16T00:27:56;98027.03;;;2.02;56.68
65754;BME280;52488;47.502;18.940;2023-03-16T00:28:59;98036.53;;;1.96;56.90
65754;BME280;52488;47.502;18.940;2023-03-16T00:30:04;98025.66;;;2.09;56.59
65754;BME280;52488;47.502;18.940;2023-03-16T00:31:10;98034.09;;;2.05;56.62
65754;BME280;52488;47.502;18.940;2023-03-16T00:32:19;98032.66;;;2.04;56.73
65754;BME280;52488;47.502;18.940;2023-03-16T00:33:23;98034.19;;;2.13;56.51
65754;BME280;52488;47.502;18.940;2023-03-16T00:34:26;98026.50;;;2.04;56.74
65754;BME280;52488;47.502;18.940;2023-03-16T00:35:31;98029.63;;;2.08;56.69
65754;BME280;52488;47.502;18.940;2023-03-16T00:36:36;98020.03;;;2.07;56.73
65754;BME280;52488;47.502;18.940;2023-03-16T00:37:40;98021.94;;;1.99;56.91
65754;BME280;52488;47.502;18.940;2023-03-16T00:38:45;98027.34;;;1.99;56.96
65754;BME280;52488;47.502;18.940;2023-03-16T00:39:51;98024.56;;;1.91;57.23
65754;BME280;52488;47.502;18.940;2023-03-16T00:40:58;98026.44;;;1.96;57.02
65754;BME280;52488;47.502;18.940;2023-03-16T00:42:01;98032.88;;;1.93;57.31
65754;BME280;52488;47.502;18.940;2023-03-16T00:43:04;98028.84;;;1.87;57.33
65754;BME280;52488;47.502;18.940;2023-03-16T00:44:08;98026.19;;;1.94;57.29
65754;BME280;52488;47.502;18.940;2023-03-16T00:45:11;98025.47;;;1.94;57.28
65754;BME280;52488;47.502;18.940;2023-03-16T00:46:16;98024.63;;;1.99;57.24
65754;BME280;52488;47.502;18.940;2023-03-16T00:47:20;98023.59;;;2.02;57.08
65754;BME280;52488;47.502;18.940;2023-03-16T00:48:23;98023.41;;;1.87;57.50
65754;BME280;52488;47.502;18.940;2023-03-16T00:49:26;98026.66;;;1.85;57.70
65754;BME280;52488;47.502;18.940;2023-03-16T00:50:29;98032.19;;;1.79;57.93
65754;BME280;52488;47.502;18.940;2023-03-16T00:51:33;98026.97;;;1.81;57.85
65754;BME280;52488;47.502;18.940;2023-03-16T00:52:36;98024.25;;;1.81;57.84
65754;BME280;52488;47.502;18.940;2023-03-16T00:53:40;98031.75;;;1.89;57.63
65754;BME280;52488;47.502;18.940;2023-03-16T00:54:45;98024.88;;;1.88;57.51
65754;BME280;52488;47.502;18.940;2023-03-16T00:55:48;98019.78;;;1.84;57.79
65754;BME280;52488;47.502;18.940;2023-03-16T00:56:51;98024.38;;;1.76;57.94
65754;BME280;52488;47.502;18.940;2023-03-16T00:57:55;98016.19;;;1.68;58.09
65754;BME280;52488;47.502;18.940;2023-03-16T00:59:02;98028.56;;;1.64;58.37
65754;BME280;52488;47.502;18.940;2023-03-16T01:00:07;98033.16;;;1.69;58.16
65754;BME280;52488;47.502;18.940;2023-03-16T01:01:17;98024.31;;;1.68;58.11
65754;BME280;52488;47.502;18.940;2023-03-16T01:02:22;98027.72;;;1.55;58.35
65754;BME280;52488;47.502;18.940;2023-03-16T01:03:26;98026.41;;;1.49;58.60
65754;BME280;52488;47.502;18.940;2023-03-16T01:04:29;98028.72;;;1.45;58.73
65754;BME280;52488;47.502;18.940;2023-03-16T01:05:38;98026.69;;;1.58;58.30
65754;BME280;52488;47.502;18.940;2023-03-16T01:06:43;98024.09;;;1.53;58.47
65754;BME280;52488;47.502;18.940;2023-03-16T01:07:46;98026.09;;;1.52;58.61
65754;BME280;52488;47.502;18.940;2023-03-16T01:08:49;98024.75;;;1.46;58.66
65754;BME280;52488;47.502;18.940;2023-03-16T01:09:54;98026.19;;;1.47;58.67
65754;BME280;52488;47.502;18.940;2023-03-16T01:11:05;98023.56;;;1.54;58.44
65754;BME280;52488;47.502;18.940;2023-03-16T01:12:16;98026.84;;;1.40;58.64
65754;BME280;52488;47.502;18.940;2023-03-16T01:13:20;98026.19;;;1.20;59.13
65754;BME280;52488;47.502;18.940;2023-03-16T01:14:23;98023.91;;;1.11;59.57
65754;BME280;52488;47.502;18.940;2023-03-16T01:15:26;98024.75;;;1.06;59.67
65754;BME280;52488;47.502;18.940;2023-03-16T01:16:30;98031.09;;;0.95;60.00
65754;BME280;52488;47.502;18.940;2023-03-16T01:17:36;98027.31;;;0.98;60.21
65754;BME280;52488;47.502;18.940;2023-03-16T01:18:39;98026.31;;;1.01;60.13
65754;BME280;52488;47.502;18.940;2023-03-16T01:19:44;98023.06;;;1.03;60.02
65754;BME280;52488;47.502;18.940;2023-03-16T01:20:47;98021.00;;;0.96;60.29
65754;BME280;52488;47.502;18.940;2023-03-16T01:21:52;98025.97;;;0.92;60.42
65754;BME280;52488;47.502;18.940;2023-03-16T01:22:56;98028.56;;;0.97;60.58
65754;BME280;52488;47.502;18.940;2023-03-16T01:23:59;98028.91;;;1.07;60.44
65754;BME280;52488;47.502;18.940;2023-03-16T01:25:02;98030.47;;;1.16;59.98
65754;BME280;52488;47.502;18.940;2023-03-16T01:26:05;98032.44;;;1.15;59.94
65754;BME280;52488;47.502;18.940;2023-03-16T01:27:10;98036.09;;;1.18;59.91
65754;BME280;52488;47.502;18.940;2023-03-16T01:28:14;98034.50;;;1.09;60.06
65754;BME280;52488;47.502;18.940;2023-03-16T01:29:17;98036.28;;;1.07;60.14
65754;BME280;52488;47.502;18.940;2023-03-16T01:30:21;98035.34;;;1.04;60.36
65754;BME280;52488;47.502;18.940;2023-03-16T01:31:24;98036.59;;;1.16;60.25
65754;BME280;52488;47.502;18.940;2023-03-16T01:32:27;98034.50;;;1.09;60.27
65754;BME280;52488;47.502;18.940;2023-03-16T01:33:30;98039.53;;;1.18;60.20
65754;BME280;52488;47.502;18.940;2023-03-16T01:34:34;98037.84;;;1.15;60.11
65754;BME280;52488;47.502;18.940;2023-03-16T01:35:37;98033.78;;;1.22;60.08
65754;BME280;52488;47.502;18.940;2023-03-16T01:36:41;98036.59;;;1.16;60.09
65754;BME280;52488;47.502;18.940;2023-03-16T01:37:46;98037.88;;;1.28;60.04
65754;BME280;52488;47.502;18.940;2023-03-16T01:38:49;98041.81;;;1.27;59.80
65754;BME280;52488;47.502;18.940;2023-03-16T01:39:53;98039.63;;;1.26;59.91
65754;BME280;52488;47.502;18.940;2023-03-16T01:40:56;98034.31;;;1.20;60.16
65754;BME280;52488;47.502;18.940;2023-03-16T01:42:00;98036.81;;;1.18;60.16
65754;BME280;52488;47.502;18.940;2023-03-16T01:43:03;98035.56;;;1.19;60.29
65754;BME280;52488;47.502;18.940;2023-03-16T01:44:15;98039.75;;;1.34;59.80
65754;BME280;52488;47.502;18.940;2023-03-16T01:46:56;98043.28;;;1.28;59.99
65754;BME280;52488;47.502;18.940;2023-03-16T01:48:00;98036.41;;;1.41;59.63
65754;BME280;52488;47.502;18.940;2023-03-16T01:49:05;98050.56;;;1.47;59.44
65754;BME280;52488;47.502;18.940;2023-03-16T01:50:09;98040.47;;;1.47;59.29
65754;BME280;52488;47.502;18.940;2023-03-16T01:51:23;98051.38;;;1.42;59.48
65754;BME280;52488;47.502;18.940;2023-03-16T01:52:31;98046.78;;;1.50;59.39
65754;BME280;52488;47.502;18.940;2023-03-16T01:53:37;98052.00;;;1.48;59.31
65754;BME280;52488;47.502;18.940;2023-03-16T01:54:46;98048.78;;;1.36;59.59
65754;BME280;52488;47.502;18.940;2023-03-16T01:55:50;98055.34;;;1.41;59.54
65754;BME280;52488;47.502;18.940;2023-03-16T01:58:03;98052.84;;;1.43;59.46
65754;BME280;52488;47.502;18.940;2023-03-16T01:59:12;98057.00;;;1.44;59.44
65754;BME280;52488;47.502;18.940;2023-03-16T02:00:19;98053.69;;;1.38;59.72
65754;BME280;52488;47.502;18.940;2023-03-16T02:01:26;98058.06;;;1.41;59.47
65754;BME280;52488;47.502;18.940;2023-03-16T02:02:30;98060.03;;;1.40;59.62
65754;BME280;52488;47.502;18.940;2023-03-16T02:03:33;98059.72;;;1.44;59.55
65754;BME280;52488;47.502;18.940;2023-03-16T02:06:14;98061.91;;;1.45;59.62
65754;BME280;52488;47.502;18.940;2023-03-16T02:07:23;98063.66;;;1.43;59.56
65754;BME280;52488;47.502;18.940;2023-03-16T02:08:26;98057.22;;;1.46;59.56
65754;BME280;52488;47.502;18.940;2023-03-16T02:09:31;98060.34;;;1.37;59.75
65754;BME280;52488;47.502;18.940;2023-03-16T02:10:36;98060.97;;;1.43;59.64
65754;BME280;52488;47.502;18.940;2023-03-16T02:11:40;98067.94;;;1.38;59.82
65754;BME280;52488;47.502;18.940;2023-03-16T02:12:43;98058.88;;;1.36;59.93
65754;BME280;52488;47.502;18.940;2023-03-16T02:13:47;98069.19;;;1.37;59.85
65754;BME280;52488;47.502;18.940;2023-03-16T02:14:52;98072.84;;;1.40;59.95
65754;BME280;52488;47.502;18.940;2023-03-16T02:15:55;98067.94;;;1.38;59.90
65754;BME280;52488;47.502;18.940;2023-03-16T02:16:59;98065.84;;;1.31;60.22
65754;BME280;52488;47.502;18.940;2023-03-16T02:18:03;98071.78;;;1.43;60.01
65754;BME280;52488;47.502;18.940;2023-03-16T02:19:11;98066.81;;;1.34;60.09
65754;BME280;52488;47.502;18.940;2023-03-16T02:20:42;98064.81;;;1.21;60.45
65754;BME280;52488;47.502;18.940;2023-03-16T02:22:05;98068.34;;;1.16;60.74
65754;BME280;52488;47.502;18.940;2023-03-16T02:23:12;98070.34;;;1.28;60.63
65754;BME280;52488;47.502;18.940;2023-03-16T02:24:22;98070.22;;;1.21;60.65
65754;BME280;52488;47.502;18.940;2023-03-16T02:25:34;98081.66;;;1.14;61.04
65754;BME280;52488;47.502;18.940;2023-03-16T02:26:52;98078.75;;;1.12;60.96
65754;BME280;52488;47.502;18.940;2023-03-16T02:28:22;98089.44;;;1.04;61.27
65754;BME280;52488;47.502;18.940;2023-03-16T02:30:57;98077.41;;;1.18;61.08
65754;BME280;52488;47.502;18.940;2023-03-16T02:32:01;98083.34;;;1.30;60.86
65754;BME280;52488;47.502;18.940;2023-03-16T02:33:04;98087.72;;;1.20;60.94
65754;BME280;52488;47.502;18.940;2023-03-16T02:34:09;98072.91;;;1.21;61.14
65754;BME280;52488;47.502;18.940;2023-03-16T02:35:13;98078.84;;;1.19;61.07
65754;BME280;52488;47.502;18.940;2023-03-16T02:36:18;98082.91;;;1.13;61.34
65754;BME280;52488;47.502;18.940;2023-03-16T02:37:22;98086.25;;;1.05;61.51
65754;BME280;52488;47.502;18.940;2023-03-16T02:38:25;98090.50;;;1.01;61.72
65754;BME280;52488;47.502;18.940;2023-03-16T02:39:28;98087.56;;;0.99;61.91
65754;BME280;52488;47.502;18.940;2023-03-16T02:40:33;98087.69;;;1.07;61.96
65754;BME280;52488;47.502;18.940;2023-03-16T02:41:37;98087.91;;;1.09;61.69
65754;BME280;52488;47.502;18.940;2023-03-16T02:42:41;98088.00;;;1.03;61.90
65754;BME280;52488;47.502;18.940;2023-03-16T02:44:10;98082.88;;;0.99;61.98
65754;BME280;52488;47.502;18.940;2023-03-16T02:45:17;98087.25;;;1.02;62.01
65754;BME280;52488;47.502;18.940;2023-03-16T02:46:22;98090.72;;;1.16;61.83
65754;BME280;52488;47.502;18.940;2023-03-16T02:48:46;98093.75;;;1.13;61.68
65754;BME280;52488;47.502;18.940;2023-03-16T02:49:51;98084.91;;;1.12;61.81
65754;BME280;52488;47.502;18.940;2023-03-16T02:50:54;98098.81;;;1.03;62.05
65754;BME280;52488;47.502;18.940;2023-03-16T02:51:58;98096.31;;;1.05;62.14
65754;BME280;52488;47.502;18.940;2023-03-16T02:53:01;98101.63;;;0.97;62.23
65754;BME280;52488;47.502;18.940;2023-03-16T02:54:04;98097.53;;;0.91;62.46
65754;BME280;52488;47.502;18.940;2023-03-16T02:55:08;98104.19;;;0.90;62.64
65754;BME280;52488;47.502;18.940;2023-03-16T02:56:11;98095.56;;;0.91;62.48
65754;BME280;52488;47.502;18.940;2023-03-16T02:57:14;98097.84;;;0.87;62.58
65754;BME280;52488;47.502;18.940;2023-03-16T02:58:18;98103.56;;;0.84;62.65
65754;BME280;52488;47.502;18.940;2023-03-16T02:59:21;98107.16;;;0.73;62.92
65754;BME280;52488;47.502;18.940;2023-03-16T03:00:25;98107.47;;;0.69;63.00
65754;BME280;52488;47.502;18.940;2023-03-16T03:01:28;98104.59;;;0.81;62.94
65754;BME280;52488;47.502;18.940;2023-03-16T03:02:34;98111.25;;;0.79;63.05
65754;BME280;52488;47.502;18.940;2023-03-16T03:03:37;98112.97;;;0.77;63.20
65754;BME280;52488;47.502;18.940;2023-03-16T03:04:40;98111.53;;;0.76;63.44
65754;BME280;52488;47.502;18.940;2023-03-16T03:05:44;98118.31;;;0.83;63.24
65754;BME280;52488;47.502;18.940;2023-03-16T03:06:47;98115.59;;;0.83;63.17
65754;BME280;52488;47.502;18.940;2023-03-16T03:07:50;98114.97;;;0.76;63.37
65754;BME280;52488;47.502;18.940;2023-03-16T03:08:53;98124.75;;;0.79;63.42
65754;BME280;52488;47.502;18.940;2023-03-16T03:09:57;98119.28;;;0.98;62.90
65754;BME280;52488;47.502;18.940;2023-03-16T03:11:00;98124.69;;;0.98;62.88
65754;BME280;52488;47.502;18.940;2023-03-16T03:12:04;98119.72;;;1.02;62.77
65754;BME280;52488;47.502;18.940;2023-03-16T03:13:07;98132.97;;;1.06;62.60
65754;BME280;52488;47.502;18.940;2023-03-16T03:14:11;98131.28;;;1.03;62.65
65754;BME280;52488;47.502;18.940;2023-03-16T03:15:15;98129.09;;;1.01;62.67
65754;BME280;52488;47.502;18.940;2023-03-16T03:16:19;98130.62;;;0.97;62.82
65754;BME280;52488;47.502;18.940;2023-03-16T03:17:23;98137.31;;;0.96;62.98
65754;BME280;52488;47.502;18.940;2023-03-16T03:18:31;98146.91;;;1.10;62.72
65754;BME280;52488;47.502;18.940;2023-03-16T03:19:36;98133.47;;;1.04;62.64
65754;BME280;52488;47.502;18.940;2023-03-16T03:20:40;98147.31;;;1.01;62.85
65754;BME280;52488;47.502;18.940;2023-03-16T03:21:43;98149.69;;;1.04;62.76
65754;BME280;52488;47.502;18.940;2023-03-16T03:22:47;98138.75;;;0.97;63.07
65754;BME280;52488;47.502;18.940;2023-03-16T03:23:51;98142.91;;;0.98;63.19
65754;BME280;52488;47.502;18.940;2023-03-16T03:24:55;98148.84;;;0.96;63.18
65754;BME280;52488;47.502;18.940;2023-03-16T03:25:58;98150.69;;;0.88;63.39
65754;BME280;52488;47.502;18.940;2023-03-16T03:27:02;98149.66;;;0.91;63.57
65754;BME280;52488;47.502;18.940;2023-03-16T03:28:07;98160.69;;;0.93;63.44
65754;BME280;52488;47.502;18.940;2023-03-16T03:29:11;98153.38;;;0.88;63.56
65754;BME280;52488;47.502;18.940;2023-03-16T03:30:18;98149.31;;;0.82;63.77
65754;BME280;52488;47.502;18.940;2023-03-16T03:31:22;98154.09;;;0.89;63.69
65754;BME280;52488;47.502;18.940;2023-03-16T03:32:25;98153.19;;;0.86;63.73
65754;BME280;52488;47.502;18.940;2023-03-16T03:33:28;98159.56;;;1.02;63.54
65754;BME280;52488;47.502;18.940;2023-03-16T03:34:32;98164.69;;;1.05;63.32
65754;BME280;52488;47.502;18.940;2023-03-16T03:35:35;98158.03;;;1.07;63.35
65754;BME280;52488;47.502;18.940;2023-03-16T03:36:39;98160.91;;;0.95;63.58
65754;BME280;52488;47.502;18.940;2023-03-16T03:37:43;98158.50;;;0.92;63.74
65754;BME280;52488;47.502;18.940;2023-03-16T03:38:46;98164.13;;;0.94;63.67
65754;BME280;52488;47.502;18.940;2023-03-16T03:39:52;98159.44;;;0.94;63.78
65754;BME280;52488;47.502;18.940;2023-03-16T03:40:55;98166.25;;;1.01;63.57
65754;BME280;52488;47.502;18.940;2023-03-16T03:42:01;98164.47;;;1.03;63.51
65754;BME280;52488;47.502;18.940;2023-03-16T03:43:04;98166.44;;;1.03;63.32
65754;BME280;52488;47.502;18.940;2023-03-16T03:44:08;98160.59;;;0.99;63.43
65754;BME280;52488;47.502;18.940;2023-03-16T03:45:12;98166.66;;;1.05;63.51
65754;BME280;52488;47.502;18.940;2023-03-16T03:46:16;98172.28;;;1.07;63.32
65754;BME280;52488;47.502;18.940;2023-03-16T03:47:19;98176.75;;;1.04;63.40
65754;BME280;52488;47.502;18.940;2023-03-16T03:48:23;98170.66;;;1.17;63.12
65754;BME280;52488;47.502;18.940;2023-03-16T03:49:26;98175.94;;;1.10;63.24
65754;BME280;52488;47.502;18.940;2023-03-16T03:50:30;98175.84;;;1.15;63.02
65754;BME280;52488;47.502;18.940;2023-03-16T03:51:33;98180.69;;;1.03;63.32
65754;BME280;52488;47.502;18.940;2023-03-16T03:52:36;98181.81;;;0.95;63.54
65754;BME280;52488;47.502;18.940;2023-03-16T03:53:39;98184.22;;;0.98;63.68
65754;BME280;52488;47.502;18.940;2023-03-16T03:54:42;98179.97;;;1.03;63.48
65754;BME280;52488;47.502;18.940;2023-03-16T03:55:46;98179.06;;;1.14;63.08
65754;BME280;52488;47.502;18.940;2023-03-16T03:56:52;98179.31;;;0.97;63.52
65754;BME280;52488;47.502;18.940;2023-03-16T03:57:55;98184.53;;;0.95;63.74
65754;BME280;52488;47.502;18.940;2023-03-16T03:58:59;98185.00;;;1.12;63.22
65754;BME280;52488;47.502;18.940;2023-03-16T04:00:04;98184.47;;;1.14;62.95
65754;BME280;52488;47.502;18.940;2023-03-16T04:01:15;98191.97;;;1.08;63.17
65754;BME280;52488;47.502;18.940;2023-03-16T04:02:19;98178.38;;;0.94;63.60
65754;BME280;52488;47.502;18.940;2023-03-16T04:03:22;98191.56;;;0.85;63.84
65754;BME280;52488;47.502;18.940;2023-03-16T04:04:26;98190.69;;;0.76;64.10
65754;BME280;52488;47.502;18.940;2023-03-16T04:05:29;98191.00;;;0.73;64.29
65754;BME280;52488;47.502;18.940;2023-03-16T04:06:32;98189.59;;;0.66;64.36
65754;BME280;52488;47.502;18.940;2023-03-16T04:07:35;98190.38;;;0.80;64.11
65754;BME280;52488;47.502;18.940;2023-03-16T04:08:39;98199.53;;;0.77;63.96
65754;BME280;52488;47.502;18.940;2023-03-16T04:09:42;98187.13;;;0.68;64.08
65754;BME280;52488;47.502;18.940;2023-03-16T04:10:46;98194.19;;;0.71;64.10
65754;BME280;52488;47.502;18.940;2023-03-16T04:11:49;98188.94;;;0.60;64.32
65754;BME280;52488;47.502;18.940;2023-03-16T04:12:52;98190.91;;;0.60;64.45
65754;BME280;52488;47.502;18.940;2023-03-16T04:13:57;98188.59;;;0.50;64.59
65754;BME280;52488;47.502;18.940;2023-03-16T04:15:01;98183.75;;;0.43;64.91
65754;BME280;52488;47.502;18.940;2023-03-16T04:16:05;98195.88;;;0.37;65.10
65754;BME280;52488;47.502;18.940;2023-03-16T04:17:09;98189.28;;;0.32;65.23
65754;BME280;52488;47.502;18.940;2023-03-16T04:18:12;98185.28;;;0.39;65.15
65754;BME280;52488;47.502;18.940;2023-03-16T04:19:15;98189.22;;;0.38;64.97
65754;BME280;52488;47.502;18.940;2023-03-16T04:20:19;98189.34;;;0.26;65.43
65754;BME280;52488;47.502;18.940;2023-03-16T04:21:25;98191.41;;;0.20;65.63
65754;BME280;52488;47.502;18.940;2023-03-16T04:22:28;98187.56;;;0.35;65.15
65754;BME280;52488;47.502;18.940;2023-03-16T04:23:33;98192.44;;;0.36;65.05
65754;BME280;52488;47.502;18.940;2023-03-16T04:24:36;98195.63;;;0.16;65.31
65754;BME280;52488;47.502;18.940;2023-03-16T04:25:39;98189.50;;;0.15;65.50
65754;BME280;52488;47.502;18.940;2023-03-16T04:26:43;98198.19;;;0.08;65.57
65754;BME280;52488;47.502;18.940;2023-03-16T04:27:47;98200.00;;;0.00;65.92
65754;BME280;52488;47.502;18.940;2023-03-16T04:28:50;98195.53;;;0.03;65.93
65754;BME280;52488;47.502;18.940;2023-03-16T04:29:54;98201.78;;;-0.08;66.10
65754;BME280;52488;47.502;18.940;2023-03-16T04:31:03;98198.28;;;-0.03;66.36
65754;BME280;52488;47.502;18.940;2023-03-16T04:32:09;98204.03;;;-0.12;66.58
65754;BME280;52488;47.502;18.940;2023-03-16T04:33:13;98202.13;;;-0.17;66.65
65754;BME280;52488;47.502;18.940;2023-03-16T04:34:16;98203.94;;;-0.25;66.77
65754;BME280;52488;47.502;18.940;2023-03-16T04:35:19;98205.59;;;-0.22;66.87
65754;BME280;52488;47.502;18.940;2023-03-16T04:36:23;98202.75;;;-0.30;66.69
65754;BME280;52488;47.502;18.940;2023-03-16T04:37:27;98208.25;;;-0.41;66.98
65754;BME280;52488;47.502;18.940;2023-03-16T04:38:31;98207.19;;;-0.33;67.03
65754;BME280;52488;47.502;18.940;2023-03-16T04:39:38;98221.06;;;-0.47;67.20
65754;BME280;52488;47.502;18.940;2023-03-16T04:40:41;98212.34;;;-0.59;67.76
65754;BME280;52488;47.502;18.940;2023-03-16T04:41:44;98218.28;;;-0.66;68.46
65754;BME280;52488;47.502;18.940;2023-03-16T04:42:48;98211.69;;;-0.71;68.66
65754;BME280;52488;47.502;18.940;2023-03-16T04:43:51;98217.25;;;-0.63;68.25
65754;BME280;52488;47.502;18.940;2023-03-16T04:44:54;98224.66;;;-0.69;68.25
65754;BME280;52488;47.502;18.940;2023-03-16T04:45:57;98224.16;;;-0.68;68.22
65754;BME280;52488;47.502;18.940;2023-03-16T04:47:01;98217.81;;;-0.70;68.22
65754;BME280;52488;47.502;18.940;2023-03-16T04:48:04;98223.22;;;-0.70;68.34
65754;BME280;52488;47.502;18.940;2023-03-16T04:49:08;98225.19;;;-0.71;68.68
65754;BME280;52488;47.502;18.940;2023-03-16T04:50:12;98218.28;;;-0.66;68.65
65754;BME280;52488;47.502;18.940;2023-03-16T04:51:15;98225.56;;;-0.61;68.54
65754;BME280;52488;47.502;18.940;2023-03-16T04:52:19;98226.56;;;-0.59;68.56
65754;BME280;52488;47.502;18.940;2023-03-16T04:53:22;98222.81;;;-0.50;68.43
65754;BME280;52488;47.502;18.940;2023-03-16T04:54:25;98226.50;;;-0.53;68.43
65754;BME280;52488;47.502;18.940;2023-03-16T04:55:29;98224.03;;;-0.51;68.38
65754;BME280;52488;47.502;18.940;2023-03-16T04:56:33;98227.91;;;-0.46;68.16
65754;BME280;52488;47.502;18.940;2023-03-16T04:57:36;98227.91;;;-0.46;68.17
65754;BME280;52488;47.502;18.940;2023-03-16T04:58:39;98236.22;;;-0.39;68.03
65754;BME280;52488;47.502;18.940;2023-03-16T04:59:43;98219.97;;;-0.33;67.76
65754;BME280;52488;47.502;18.940;2023-03-16T05:00:46;98237.66;;;-0.38;67.66
65754;BME280;52488;47.502;18.940;2023-03-16T05:01:50;98239.69;;;-0.44;67.88
65754;BME280;52488;47.502;18.940;2023-03-16T05:02:54;98236.47;;;-0.42;68.11
65754;BME280;52488;47.502;18.940;2023-03-16T05:03:57;98239.84;;;-0.36;67.98
65754;BME280;52488;47.502;18.940;2023-03-16T05:05:02;98242.03;;;-0.35;67.91
65754;BME280;52488;47.502;18.940;2023-03-16T05:06:05;98234.91;;;-0.32;67.79
65754;BME280;52488;47.502;18.940;2023-03-16T05:07:09;98237.84;;;-0.30;67.56
65754;BME280;52488;47.502;18.940;2023-03-16T05:08:13;98237.38;;;-0.34;67.48
65754;BME280;52488;47.502;18.940;2023-03-16T05:09:16;98241.03;;;-0.32;67.46
65754;BME280;52488;47.502;18.940;2023-03-16T05:10:19;98249.66;;;-0.33;67.28
65754;BME280;52488;47.502;18.940;2023-03-16T05:11:23;98247.44;;;-0.35;67.48
65754;BME280;52488;47.502;18.940;2023-03-16T05:12:26;98250.19;;;-0.40;67.74
65754;BME280;52488;47.502;18.940;2023-03-16T05:13:29;98245.53;;;-0.40;67.80
65754;BME280;52488;47.502;18.940;2023-03-16T05:14:32;98255.50;;;-0.29;67.36
65754;BME280;52488;47.502;18.940;2023-03-16T05:15:38;98255.31;;;-0.37;67.51
65754;BME280;52488;47.502;18.940;2023-03-16T05:16:41;98254.84;;;-0.41;67.77
65754;BME280;52488;47.502;18.940;2023-03-16T05:17:45;98256.06;;;-0.36;67.97
65754;BME280;52488;47.502;18.940;2023-03-16T05:18:48;98260.22;;;-0.35;67.98
65754;BME280;52488;47.502;18.940;2023-03-16T05:19:51;98253.34;;;-0.36;68.07
65754;BME280;52488;47.502;18.940;2023-03-16T05:20:55;98251.84;;;-0.32;68.04
65754;BME280;52488;47.502;18.940;2023-03-16T05:21:58;98252.56;;;-0.31;68.01
65754;BME280;52488;47.502;18.940;2023-03-16T05:23:01;98254.75;;;-0.30;68.06
65754;BME280;52488;47.502;18.940;2023-03-16T05:24:04;98256.22;;;-0.29;67.93
65754;BME280;52488;47.502;18.940;2023-03-16T05:25:08;98258.91;;;-0.29;67.91
65754;BME280;52488;47.502;18.940;2023-03-16T05:26:17;98259.66;;;-0.28;67.91
65754;BME280;52488;47.502;18.940;2023-03-16T05:27:20;98261.81;;;-0.21;67.82
65754;BME280;52488;47.502;18.940;2023-03-16T05:28:23;98263.44;;;-0.12;67.60
65754;BME280;52488;47.502;18.940;2023-03-16T05:29:26;98257.66;;;0.03;67.02
65754;BME280;52488;47.502;18.940;2023-03-16T05:30:29;98254.22;;;0.02;67.04
65754;BME280;52488;47.502;18.940;2023-03-16T05:31:32;98251.31;;;0.00;67.05
65754;BME280;52488;47.502;18.940;2023-03-16T05:32:36;98253.44;;;0.07;66.91
65754;BME280;52488;47.502;18.940;2023-03-16T05:33:40;98254.31;;;0.15;66.46
65754;BME280;52488;47.502;18.940;2023-03-16T05:34:43;98259.97;;;0.17;66.37
65754;BME280;52488;47.502;18.940;2023-03-16T05:35:46;98257.34;;;0.31;65.86
65754;BME280;52488;47.502;18.940;2023-03-16T05:36:49;98261.84;;;0.47;65.13
65754;BME280;52488;47.502;18.940;2023-03-16T05:37:53;98260.94;;;0.39;65.31
65754;BME280;52488;47.502;18.940;2023-03-16T05:38:56;98256.78;;;0.38;65.45
65754;BME280;52488;47.502;18.940;2023-03-16T05:39:59;98271.19;;;0.46;65.25
65754;BME280;52488;47.502;18.940;2023-03-16T05:41:03;98254.47;;;0.47;65.09
65754;BME280;52488;47.502;18.940;2023-03-16T05:42:08;98253.53;;;0.45;65.19
65754;BME280;52488;47.502;18.940;2023-03-16T05:43:11;98262.19;;;0.38;65.50
65754;BME280;52488;47.502;18.940;2023-03-16T05:44:15;98256.44;;;0.47;65.15
65754;BME280;52488;47.502;18.940;2023-03-16T05:45:18;98267.12;;;0.58;64.65
65754;BME280;52488;47.502;18.940;2023-03-16T05:46:21;98265.97;;;0.72;64.03
65754;BME280;52488;47.502;18.940;2023-03-16T05:47:24;98265.28;;;0.66;64.04
65754;BME280;52488;47.502;18.940;2023-03-16T05:48:27;98274.75;;;0.78;63.85